Maple Glen, Pennsylvania
Current Conditions -  °F | °C
As of 6:15 PM on Monday 22 Dec 2014 (Local Time) from KLOM Reporting Station
Broken Clouds Broken Clouds  
Wind Chill: 41°   Ceiling: 800
Heat Index: 41°   Visibility: 5mi
Dew Point: 36°   Wind: 0mph
Humidity: 81%   Direction: NA
Pressure: 30.18"   Gusts: NA
Location:  40.1823°N, 75.2133°W
Report Text: KLOM 222315Z AUTO 00000KT 5SM BKN008 BKN075 05/02 A3018 RMK AO1
Loading
Personal Weather Stations






























Interactive Weather Map New forecast layout! Learn more

10-Day Weather Forecast

Advertisements
Track Severe Weather on mobile